Aviation Digital Data Service (ADDS)

Output produced by METARs form (0301 UTC 23 October 2014)
found at http://aviationweather.gov/adds/metars/
 
KDAG 230250Z AUTO 18003KT 10SM CLR 22/M03 A3000 RMK AO2 SLP143 T02221033 53008
KDAG 222320Z 2300/2324 03005KT P6SM FEW250 
     FM230300 27007KT P6SM FEW250 
     FM232000 33007KT P6SM FEW250
       
KEDW 230258Z 30002KT 50SM BKN300 22/M03 A3000 RMK AO2A SLP148 T02161027 52009
TAF KEDW 2302/2408 VRB06KT 9999 BKN300 QNH2998INS TX30/2323Z TN08/2312Z
       
KVCV 230255Z AUTO 00000KT 10SM CLR 21/M06 A3005 RMK AO2
KONT 230253Z 25005KT 10SM BKN250 24/14 A2994 RMK AO2 SLP129 T02390144 53018
KONT 222320Z 2300/2406 26008KT P6SM SKC 
     FM230200 VRB04KT P6SM SKC 
     FM232100 27008KT P6SM SKC 
     FM240300 VRB04KT P6SM SKC
       
KNID 230256Z 22009KT 10SM BKN270 21/M02 A3000 RMK AO2 SLP152 T02111017 53008 $
TAF KNID 2223/2323 VRB05KT 9999 BKN270 QNH2997INS 
     BECMG 2301/2303 VRB06KT 9999 FEW270 QNH2998INS T08/2313Z T29/2322Z LAST NO AMD AFT 2305/ NEXT 2315
       
KSNA 230253Z 00000KT 10SM FEW330 23/18 A2993 RMK AO2 SLP133 T02280178 53014
KSNA 222320Z 2300/2324 VRB04KT P6SM SKC 
     FM230900 VRB04KT 5SM BR FEW003 
     TEMPO 2310/2314 1SM BR BKN003 
     FM231500 VRB04KT P6SM SKC 
     FM232100 21008KT P6SM SKC
       
KSAN 230251Z 29004KT 8SM SCT200 21/17 A2994 RMK AO2 SLP138 T02110172 53012
KSAN 222320Z 2300/2406 30008KT P6SM SCT200 
     FM230200 VRB04KT P6SM SKC 
     FM231000 VRB04KT 2SM BR BKN005 
     FM231400 VRB04KT P6SM SKC 
     FM232000 30008KT P6SM SKC 
     FM240200 VRB04KT P6SM SKC
       
KNXP 230256Z 27004KT 10SM CLR 22/01 A3006 RMK AO2 SLP153 T02170011 53013
TAF KNXP 2221/2321 VRB06KT 9999 SCT200 QNH2998INS T30/2223Z T15/2313Z
       
KPSP 230253Z 00000KT 10SM CLR 28/03 A2992 RMK AO2 SLP130 T02780033 53016 $
KPSP 222320Z 2300/2324 VRB05KT P6SM SKC
       
KLAX 230253Z 26005KT 10SM FEW200 SCT250 21/16 A2994 RMK AO2 SLPNO T02060161 53014
KLAX 222339Z 2300/2406 27011KT P6SM SCT250 
     FM230400 VRB03KT P6SM SCT250 
     FM231200 VRB03KT 5SM BR SCT006 
     FM231600 VRB03KT 6SM HZ SKC 
     FM232000 26011KT P6SM SKC 
     FM240300 25006KT P6SM SKC
       
KCNO 230253Z 28005KT 10SM CLR 21/13 A2995 RMK AO2 SLP138 T02060128 53018
KSMO 230251Z 00000KT 10SM CLR 21/16 A2994 RMK AO2 SLP135 T02110161 53015
KLGB 230253Z 31005KT 10SM CLR 21/17 A2993 RMK AO2 SLP134 T02110172 53016
KLGB 222339Z 2300/2324 31008KT P6SM SCT250 
     FM230500 VRB03KT P6SM SCT250 
     FM231100 VRB03KT 6SM BR BKN005 
     FM231500 VRB03KT 6SM HZ SCT006 
     FM231700 VRB03KT P6SM SKC 
     FM232000 20007KT P6SM SKC 
     FM232300 30008KT P6SM SKC
       
KVNY 230251Z 00000KT 10SM CLR 23/08 A2994 RMK AO2 SLP132 T02280078 53020
KVNY 222339Z 2300/2324 17009KT P6SM SCT250 
     FM230200 VRB03KT P6SM SCT250 
     FM232100 16007KT P6SM SKC
       
KBUR 230253Z 10004KT 10SM CLR 23/12 A2994 RMK AO2 SLP127 T02280122 53017 $
KBUR 222339Z 2300/2324 17007KT P6SM SCT250 
     FM230200 VRB03KT P6SM SCT250 
     FM232100 17007KT P6SM SKC
       
KBFL 230254Z AUTO 36003KT 10SM CLR 20/07 A3003 RMK AO2 SLP164 T02000072 53008 TSNO
KBFL 222320Z 2300/2324 VRB04KT P6SM SKC
       
KPMD 230253Z AUTO 20006KT 10SM CLR 19/M01 A3004 RMK AO2 SLP159 T01941006 53010 TSNO
KPMD 222339Z 2300/2324 VRB05KT P6SM SCT250 
     FM230200 24008KT P6SM SCT250 
     FM230500 VRB03KT P6SM SCT250 
     FM232100 27007KT P6SM SKC 
     FM232300 25011KT P6SM SKC
       
KOXR 230251Z 00000KT 10SM CLR 21/13 A2993 RMK AO2 SLP133 T02060133 53010
KOXR 222339Z 2300/2324 27009KT P6SM SCT250 
     FM230200 VRB03KT P6SM SCT250 
     FM231400 05005KT P6SM SCT250 
     FM231800 23005KT P6SM SKC 
     FM232100 25010KT P6SM SKC
       
KWJF 230256Z 26006KT 10SM CLR 17/M02 A3003 RMK AO2 SLP164 T01671022 53010
KWJF 222339Z 2300/2324 VRB05KT P6SM SCT250 
     FM230200 28008KT P6SM SCT250 
     FM231100 VRB03KT P6SM SCT250 
     FM232100 22008KT P6SM SKC 
     FM232300 23012KT P6SM SKC
       
KCMA 230255Z 03004KT 10SM CLR 19/13 A2993 RMK AO2 SLP142 T01940133 53011
KFAT 230253Z 30003KT 10SM CLR 22/07 A3002 RMK AO2 SLP165 T02170067 53008
KFAT 222320Z 2300/2324 VRB03KT P6SM SCT250
       
KEED 230256Z AUTO 25007KT 10SM CLR 27/06 A2993 RMK AO2 SLP110 T02670056 53011
KEED 222320Z 2300/2324 VRB05KT P6SM FEW250 
     FM230200 26007KT P6SM FEW250 
     FM231800 06006KT P6SM FEW250
       
KLSV 230258Z AUTO 06006KT 10SM CLR 22/M02 A2999 RMK AO2 SLP143 T02241017 52009 $
TAF KLSV 2301/2407 03009KT 9999 FEW200 QNH2990INS TX29/2323Z TN15/2311Z
       
KLAS 230256Z 19004KT 10SM SCT250 25/M02 A2998 RMK AO2 SLP133 T02501017 52008
KLAS 230248Z 2303/2324 21008KT P6SM SCT250 
     FM231800 15008KT P6SM FEW250
       
KHII 230255Z AUTO 06006KT 10SM CLR 29/02 A2992 RMK AO2
KIFP 230255Z AUTO 10004KT 10SM CLR 27/03 A2993 RMK AO2 PWINO